Gallina — 9VGC4 — position and weather

sailwx.info

Track history (hours):
 
Tides and Currents Weather Stations Pressure Air Temp Water Temp Dewpoint Dewpoint Depression Visibility Wind Speed Wind Dir Waves Ship Positions

Gallina

Last reported at 2016-Nov-19 17:33 UTC. Time now 2016-Dec-04 14:18 UTC.
Position S 32°44' W 071°38'.
Warning: this ship's position is 14 days out of date.

Type: Ship (hazmat cat A). MMSI: 564646000.

Date/timePositionNaut miles runAvg speedWind from/ knotsBaromVisibWave heightAir tempDewpointWater temp
2016-Nov-19 17:33S 32°44' W 071°38'7 0.3
2016-Nov-18 17:31S 32°46' W 071°31'13 4.5
2016-Nov-18 14:33S 32°52' W 071°45'13 6.1
2016-Nov-18 12:29S 32°39' W 071°45'7 7.3
2016-Nov-18 11:33S 32°45' W 071°41'2 1.0
2016-Nov-18 09:33S 32°45' W 071°43'  
2016-Nov-10 15:31N 09°13' W 079°55'5 1.3
2016-Nov-10 11:34N 09°18' W 079°55'4 3.8
2016-Nov-10 10:34N 09°22' W 079°55'5 4.7
2016-Nov-10 09:32N 09°27' W 079°55'  
Track history (hours):
 
Tides and Currents Weather Stations Pressure Air Temp Water Temp Dewpoint Dewpoint Depression Visibility Wind Speed Wind Dir Waves Ship Positions

Gallina

Last reported at 2016-Nov-19 17:33 UTC. Time now 2016-Dec-04 14:18 UTC.
Position S 32°44' W 071°38'.
Warning: this ship's position is 14 days out of date.

Type: Ship (hazmat cat A). MMSI: 564646000.

Date/timePositionNaut miles runAvg speedWind from/ knotsBaromVisibWave heightAir tempDewpointWater temp
2016-Nov-19 17:33S 32°44' W 071°38'7 0.3
2016-Nov-18 17:31S 32°46' W 071°31'13 4.5
2016-Nov-18 14:33S 32°52' W 071°45'13 6.1
2016-Nov-18 12:29S 32°39' W 071°45'7 7.3
2016-Nov-18 11:33S 32°45' W 071°41'2 1.0
2016-Nov-18 09:33S 32°45' W 071°43'  
2016-Nov-10 15:31N 09°13' W 079°55'5 1.3
2016-Nov-10 11:34N 09°18' W 079°55'4 3.8
2016-Nov-10 10:34N 09°22' W 079°55'5 4.7
2016-Nov-10 09:32N 09°27' W 079°55'  

Dump ship's entire track history